SVPL1: Red River at Shreveport Site 2

                                SHEF ID:       SVPL1     Red River at Shreveport Site 2
STATION TYPE:

PRECIP STAGE RIV-FLOW VOLTAGE
in ft cfs volt
Ccp-Rev Ccp-Rev Ccp-Rev Ccp-Rev
(America/Chicago)
07/06 00:00 0.00 16.88 29280 12.81
07/06 01:00 0.00 16.86 29160 12.80
07/06 02:00 0.00 16.86 29160 12.79
07/06 03:00 0.00 16.84 29040 12.77
07/06 04:00 0.00 16.83 28980 12.76
07/06 05:00 0.00 16.73 28380 12.76
07/06 06:00 0.00 16.81 28860 12.77
07/06 07:00 0.00 16.81 28860 12.93
07/06 08:00 0.00 16.78 28680 13.32
07/06 09:00 0.00 16.79 28740 13.06
07/06 10:00 0.00 16.77 28620 13.06
07/06 11:00 0.00 16.72 28320 13.07
07/06 12:00 0.00 16.67 28020 13.09
07/06 13:00 0.00 16.60 27600 13.06
07/06 14:00 0.00 16.66 27960 13.08
07/06 15:00 0.00 16.60 27600 13.07
07/06 16:00 0.00 16.51 27060 12.93
07/06 17:00 0.00 16.73 28380 12.88
07/06 18:00 0.00 16.66 27960 12.86
07/06 19:00 0.00 16.73 28380 12.84
07/06 20:00 0.00 16.61 27660 12.83
07/06 21:00 0.00 16.64 27840 12.82
07/06 22:00 0.00 16.56 27360 12.81
07/06 23:00 0.00 16.58 27480 12.80
Data processed at Wed 08Jul2026 15:26 GMT

NOTICE: If you are parsing this page

Please convert to using our Data API. Starting early 2026 we will be migrating to: https://water.usace.army.mil with modern pages rendered in JavaScript. When this migration completes you will no longer be able to scrape this page! CWMSDataAPI (CDA)

Timeseries IDs (TSIDs)

TSIDs used from left to right in the data table
SHRE.Precip-Inc.Total.1Hour.1Hour.Ccp-Rev
SHRE.Stage.Inst.1Hour.0.Ccp-Rev
SHRE.Flow.Inst.1Hour.0.Ccp-Rev
SHRE.Volt-Battery.Inst.1Hour.0.Ccp-Rev

                            

All information presented herein is the property of the government of the United States of America and may be revised or deleted at any time without prior notice. Dissemination of this information without the expressed written consent of the Public Affairs Office, Tulsa District U.S. Army Corps of Engineers is strictly prohibited. These data are gathered electronically and, as presented, have NOT undergone any form of quality control. These data are NOT guaranteed to be valid or correct.